Time;durP1;ratioP1;P1;durP2;ratioP2;P2;SDS_P1;SDS_P2;PMS_P1;PMS_P2;Temp;Humidity;BMP_temperature;BMP_pressure;BME280_temperature;BME280_humidity;BME280_pressure;Samples;Min_cycle;Max_cycle;Signal;HPM_P1;HPM_P2
2021/08/28 00:00:08;;;;;;;9.3;7.3;;;;;;;12.25;90.48145;95171.77;;;;
2021/08/28 00:01:10;;;;;;;9.3;7.3;;;;;;;12.25;90.48145;95171.77;;;;
2021/08/28 00:02:10;;;;;;;9.3;7.3;;;;;;;12.25;90.48145;95171.77;;;;
2021/08/28 00:03:11;;;;;;;9.3;7.3;;;;;;;12.25;90.48145;95171.77;;;;
2021/08/28 00:04:11;;;;;;;9.3;7.3;;;;;;;12.25;90.48145;95171.77;;;;
2021/08/28 00:05:12;;;;;;;9.3;7.3;;;;;;;12.25;90.48145;95171.77;;;;
2021/08/28 00:06:13;;;;;;;9.3;7.3;;;;;;;12.25;90.48145;95171.77;;;;
2021/08/28 00:07:13;;;;;;;9.3;7.3;;;;;;;12.25;90.48145;95171.77;;;;
2021/08/28 00:08:14;;;;;;;9.3;7.3;;;;;;;12.25;90.48145;95171.77;;;;
2021/08/28 00:09:15;;;;;;;9.3;7.3;;;;;;;12.25;90.48145;95171.77;;;;
2021/08/28 00:10:15;;;;;;;10.25;8.1;;;;;;;12.36;90.56836;95164.46;;;;
2021/08/28 00:11:16;;;;;;;10.25;8.1;;;;;;;12.36;90.56836;95164.46;;;;
2021/08/28 00:12:17;;;;;;;10.25;8.1;;;;;;;12.36;90.56836;95164.46;;;;
2021/08/28 00:13:17;;;;;;;10.25;8.1;;;;;;;12.36;90.56836;95164.46;;;;
2021/08/28 00:14:18;;;;;;;10.25;8.1;;;;;;;12.36;90.56836;95164.46;;;;
2021/08/28 00:15:19;;;;;;;10.25;8.1;;;;;;;12.36;90.56836;95164.46;;;;
2021/08/28 00:16:19;;;;;;;10.25;8.1;;;;;;;12.36;90.56836;95164.46;;;;
2021/08/28 00:17:20;;;;;;;10.25;8.1;;;;;;;12.36;90.56836;95164.46;;;;
2021/08/28 00:18:20;;;;;;;10.25;8.1;;;;;;;12.36;90.56836;95164.46;;;;
2021/08/28 00:19:20;;;;;;;10.25;8.1;;;;;;;12.36;90.56836;95164.46;;;;
2021/08/28 00:20:21;;;;;;;8.1;7.3;;;;;;;12.46;90.53809;95156.91;;;;
2021/08/28 00:21:21;;;;;;;8.1;7.3;;;;;;;12.46;90.53809;95156.91;;;;
2021/08/28 00:22:22;;;;;;;8.1;7.3;;;;;;;12.46;90.53809;95156.91;;;;
2021/08/28 00:23:23;;;;;;;8.1;7.3;;;;;;;12.46;90.53809;95156.91;;;;
2021/08/28 00:24:23;;;;;;;8.1;7.3;;;;;;;12.46;90.53809;95156.91;;;;
2021/08/28 00:25:24;;;;;;;8.1;7.3;;;;;;;12.46;90.53809;95156.91;;;;
2021/08/28 00:26:24;;;;;;;8.1;7.3;;;;;;;12.46;90.53809;95156.91;;;;
2021/08/28 00:27:25;;;;;;;8.1;7.3;;;;;;;12.46;90.53809;95156.91;;;;
2021/08/28 00:28:25;;;;;;;8.1;7.3;;;;;;;12.46;90.53809;95156.91;;;;
2021/08/28 00:29:26;;;;;;;8.1;7.3;;;;;;;12.46;90.53809;95156.91;;;;
2021/08/28 00:30:27;;;;;;;8.1;7.3;;;;;;;12.46;90.53809;95156.91;;;;
2021/08/28 00:31:27;;;;;;;8.050001;7.199999;;;;;;;12.42;90.57129;95153.05;;;;
2021/08/28 00:32:28;;;;;;;8.050001;7.199999;;;;;;;12.42;90.57129;95153.05;;;;
2021/08/28 00:33:28;;;;;;;8.050001;7.199999;;;;;;;12.42;90.57129;95153.05;;;;
2021/08/28 00:34:29;;;;;;;8.050001;7.199999;;;;;;;12.42;90.57129;95153.05;;;;
2021/08/28 00:35:29;;;;;;;8.050001;7.199999;;;;;;;12.42;90.57129;95153.05;;;;
2021/08/28 00:36:30;;;;;;;8.050001;7.199999;;;;;;;12.42;90.57129;95153.05;;;;
2021/08/28 00:37:30;;;;;;;8.050001;7.199999;;;;;;;12.42;90.57129;95153.05;;;;
2021/08/28 00:38:31;;;;;;;8.050001;7.199999;;;;;;;12.42;90.57129;95153.05;;;;
2021/08/28 00:39:32;;;;;;;8.050001;7.199999;;;;;;;12.42;90.57129;95153.05;;;;
2021/08/28 00:40:32;;;;;;;8.050001;7.199999;;;;;;;12.42;90.57129;95153.05;;;;
2021/08/28 00:41:34;;;;;;;8.15;7.35;;;;;;;12.45;90.86621;95139;;;;
2021/08/28 00:42:35;;;;;;;8.15;7.35;;;;;;;12.45;90.86621;95139;;;;
2021/08/28 00:43:45;;;;;;;8.15;7.35;;;;;;;12.45;90.86621;95139;;;;
2021/08/28 00:44:45;;;;;;;8.15;7.35;;;;;;;12.45;90.86621;95139;;;;
2021/08/28 00:45:46;;;;;;;8.15;7.35;;;;;;;12.45;90.86621;95139;;;;
2021/08/28 00:46:46;;;;;;;8.15;7.35;;;;;;;12.45;90.86621;95139;;;;
2021/08/28 00:47:47;;;;;;;8.15;7.35;;;;;;;12.45;90.86621;95139;;;;
2021/08/28 00:48:50;;;;;;;8.15;7.35;;;;;;;12.45;90.86621;95139;;;;
2021/08/28 00:49:50;;;;;;;8.15;7.35;;;;;;;12.45;90.86621;95139;;;;
2021/08/28 00:50:51;;;;;;;8.15;7.35;;;;;;;12.45;90.86621;95139;;;;
2021/08/28 00:51:52;;;;;;;8.15;7.35;;;;;;;12.45;90.86621;95139;;;;
2021/08/28 00:52:52;;;;;;;8.200001;7.2;;;;;;;12.33;91.01367;95138.73;;;;
2021/08/28 00:53:54;;;;;;;8.200001;7.2;;;;;;;12.33;91.01367;95138.73;;;;
2021/08/28 00:54:54;;;;;;;8.200001;7.2;;;;;;;12.33;91.01367;95138.73;;;;
2021/08/28 00:55:55;;;;;;;8.200001;7.2;;;;;;;12.33;91.01367;95138.73;;;;
2021/08/28 00:56:55;;;;;;;8.200001;7.2;;;;;;;12.33;91.01367;95138.73;;;;
2021/08/28 00:57:56;;;;;;;8.200001;7.2;;;;;;;12.33;91.01367;95138.73;;;;
2021/08/28 00:58:57;;;;;;;8.200001;7.2;;;;;;;12.33;91.01367;95138.73;;;;
2021/08/28 00:59:57;;;;;;;8.200001;7.2;;;;;;;12.33;91.01367;95138.73;;;;
2021/08/28 01:00:58;;;;;;;8.200001;7.2;;;;;;;12.33;91.01367;95138.73;;;;
2021/08/28 01:02:03;;;;;;;8.200001;7.2;;;;;;;12.33;91.01367;95138.73;;;;
2021/08/28 01:03:04;;;;;;;8.4;7.550001;;;;;;;12.24;91.60352;95136.16;;;;
2021/08/28 01:04:07;;;;;;;8.4;7.550001;;;;;;;12.24;91.60352;95136.16;;;;
2021/08/28 01:05:10;;;;;;;8.4;7.550001;;;;;;;12.24;91.60352;95136.16;;;;
2021/08/28 01:06:16;;;;;;;8.4;7.550001;;;;;;;12.24;91.60352;95136.16;;;;
2021/08/28 01:07:22;;;;;;;8.4;7.550001;;;;;;;12.24;91.60352;95136.16;;;;
2021/08/28 01:08:32;;;;;;;8.4;7.550001;;;;;;;12.24;91.60352;95136.16;;;;
2021/08/28 01:09:38;;;;;;;8.4;7.550001;;;;;;;12.24;91.60352;95136.16;;;;
2021/08/28 01:10:43;;;;;;;8.4;7.550001;;;;;;;12.24;91.60352;95136.16;;;;
2021/08/28 01:11:52;;;;;;;8.4;7.550001;;;;;;;12.24;91.60352;95136.16;;;;
2021/08/28 01:12:59;;;;;;;8.4;7.550001;;;;;;;12.24;91.60352;95136.16;;;;
2021/08/28 01:14:02;;;;;;;9.200001;8.15;;;;;;;12.17;92.15625;95137.81;;;;
2021/08/28 01:15:08;;;;;;;9.200001;8.15;;;;;;;12.17;92.15625;95137.81;;;;
2021/08/28 01:16:12;;;;;;;9.200001;8.15;;;;;;;12.17;92.15625;95137.81;;;;
2021/08/28 01:17:17;;;;;;;9.200001;8.15;;;;;;;12.17;92.15625;95137.81;;;;
2021/08/28 01:18:18;;;;;;;9.200001;8.15;;;;;;;12.17;92.15625;95137.81;;;;
2021/08/28 01:19:23;;;;;;;9.200001;8.15;;;;;;;12.17;92.15625;95137.81;;;;
2021/08/28 01:20:32;;;;;;;9.200001;8.15;;;;;;;12.17;92.15625;95137.81;;;;
2021/08/28 01:21:40;;;;;;;9.200001;8.15;;;;;;;12.17;92.15625;95137.81;;;;
2021/08/28 01:22:41;;;;;;;9.200001;8.15;;;;;;;12.17;92.15625;95137.81;;;;
2021/08/28 01:23:43;;;;;;;9.200001;8.15;;;;;;;12.17;92.15625;95137.81;;;;
2021/08/28 01:24:44;;;;;;;9.450001;8.150001;;;;;;;12.25;92.43848;95136.02;;;;
2021/08/28 01:25:48;;;;;;;9.450001;8.150001;;;;;;;12.25;92.43848;95136.02;;;;
2021/08/28 01:26:52;;;;;;;9.450001;8.150001;;;;;;;12.25;92.43848;95136.02;;;;
2021/08/28 01:27:58;;;;;;;9.450001;8.150001;;;;;;;12.25;92.43848;95136.02;;;;
2021/08/28 01:29:04;;;;;;;9.450001;8.150001;;;;;;;12.25;92.43848;95136.02;;;;
2021/08/28 01:30:19;;;;;;;9.450001;8.150001;;;;;;;12.25;92.43848;95136.02;;;;
2021/08/28 01:31:20;;;;;;;9.450001;8.150001;;;;;;;12.25;92.43848;95136.02;;;;
2021/08/28 01:32:22;;;;;;;9.450001;8.150001;;;;;;;12.25;92.43848;95136.02;;;;
2021/08/28 01:33:23;;;;;;;9.450001;8.150001;;;;;;;12.25;92.43848;95136.02;;;;
2021/08/28 01:34:24;;;;;;;9.450001;8.150001;;;;;;;12.25;92.43848;95136.02;;;;
2021/08/28 01:35:26;;;;;;;11.05;8.450002;;;;;;;12.25;92.5459;95136.44;;;;
2021/08/28 01:36:27;;;;;;;11.05;8.450002;;;;;;;12.25;92.5459;95136.44;;;;
2021/08/28 01:37:28;;;;;;;11.05;8.450002;;;;;;;12.25;92.5459;95136.44;;;;
2021/08/28 01:38:28;;;;;;;11.05;8.450002;;;;;;;12.25;92.5459;95136.44;;;;
2021/08/28 01:39:29;;;;;;;11.05;8.450002;;;;;;;12.25;92.5459;95136.44;;;;
2021/08/28 01:40:31;;;;;;;11.05;8.450002;;;;;;;12.25;92.5459;95136.44;;;;
2021/08/28 01:41:33;;;;;;;11.05;8.450002;;;;;;;12.25;92.5459;95136.44;;;;
2021/08/28 01:42:34;;;;;;;11.05;8.450002;;;;;;;12.25;92.5459;95136.44;;;;
2021/08/28 01:43:35;;;;;;;11.05;8.450002;;;;;;;12.25;92.5459;95136.44;;;;
2021/08/28 01:44:37;;;;;;;11.05;8.450002;;;;;;;12.25;92.5459;95136.44;;;;
2021/08/28 01:45:38;;;;;;;9;8.1;;;;;;;12.24;93.01367;95144.81;;;;
2021/08/28 01:46:41;;;;;;;9;8.1;;;;;;;12.24;93.01367;95144.81;;;;
2021/08/28 01:47:43;;;;;;;9;8.1;;;;;;;12.24;93.01367;95144.81;;;;
2021/08/28 01:48:46;;;;;;;9;8.1;;;;;;;12.24;93.01367;95144.81;;;;
2021/08/28 01:49:47;;;;;;;9;8.1;;;;;;;12.24;93.01367;95144.81;;;;
2021/08/28 01:50:48;;;;;;;9;8.1;;;;;;;12.24;93.01367;95144.81;;;;
2021/08/28 01:51:50;;;;;;;9;8.1;;;;;;;12.24;93.01367;95144.81;;;;
2021/08/28 01:52:52;;;;;;;9;8.1;;;;;;;12.24;93.01367;95144.81;;;;
2021/08/28 01:53:52;;;;;;;9;8.1;;;;;;;12.24;93.01367;95144.81;;;;
2021/08/28 01:54:53;;;;;;;9;8.1;;;;;;;12.24;93.01367;95144.81;;;;
2021/08/28 01:55:53;;;;;;;9;8.1;;;;;;;12.24;93.01367;95144.81;;;;
2021/08/28 01:56:54;;;;;;;9.949999;8.949999;;;;;;;12.25;93.37695;95144.7;;;;
2021/08/28 01:57:55;;;;;;;9.949999;8.949999;;;;;;;12.25;93.37695;95144.7;;;;
2021/08/28 01:58:57;;;;;;;9.949999;8.949999;;;;;;;12.25;93.37695;95144.7;;;;
2021/08/28 01:59:58;;;;;;;9.949999;8.949999;;;;;;;12.25;93.37695;95144.7;;;;
2021/08/28 02:01:00;;;;;;;9.949999;8.949999;;;;;;;12.25;93.37695;95144.7;;;;
2021/08/28 02:02:00;;;;;;;9.949999;8.949999;;;;;;;12.25;93.37695;95144.7;;;;
2021/08/28 02:03:01;;;;;;;9.949999;8.949999;;;;;;;12.25;93.37695;95144.7;;;;
2021/08/28 02:04:02;;;;;;;9.949999;8.949999;;;;;;;12.25;93.37695;95144.7;;;;
2021/08/28 02:05:02;;;;;;;9.949999;8.949999;;;;;;;12.25;93.37695;95144.7;;;;
2021/08/28 02:06:04;;;;;;;9.949999;8.949999;;;;;;;12.25;93.37695;95144.7;;;;
2021/08/28 02:07:09;;;;;;;10.05;8.499999;;;;;;;12.26;93.67969;95143.09;;;;
2021/08/28 02:08:19;;;;;;;10.05;8.499999;;;;;;;12.26;93.67969;95143.09;;;;
2021/08/28 02:09:28;;;;;;;10.05;8.499999;;;;;;;12.26;93.67969;95143.09;;;;
2021/08/28 02:10:38;;;;;;;10.05;8.499999;;;;;;;12.26;93.67969;95143.09;;;;
2021/08/28 02:11:43;;;;;;;10.05;8.499999;;;;;;;12.26;93.67969;95143.09;;;;
2021/08/28 02:12:51;;;;;;;10.05;8.499999;;;;;;;12.26;93.67969;95143.09;;;;
2021/08/28 02:13:55;;;;;;;10.05;8.499999;;;;;;;12.26;93.67969;95143.09;;;;
2021/08/28 02:15:04;;;;;;;10.05;8.499999;;;;;;;12.26;93.67969;95143.09;;;;
2021/08/28 02:16:08;;;;;;;10.05;8.499999;;;;;;;12.26;93.67969;95143.09;;;;
2021/08/28 02:17:14;;;;;;;10.05;8.499999;;;;;;;12.26;93.67969;95143.09;;;;
2021/08/28 02:18:16;;;;;;;10.8;8.999998;;;;;;;12.34;93.96289;95140.49;;;;
2021/08/28 02:19:23;;;;;;;10.8;8.999998;;;;;;;12.34;93.96289;95140.49;;;;
2021/08/28 02:20:27;;;;;;;10.8;8.999998;;;;;;;12.34;93.96289;95140.49;;;;
2021/08/28 02:21:33;;;;;;;10.8;8.999998;;;;;;;12.34;93.96289;95140.49;;;;
2021/08/28 02:22:35;;;;;;;10.8;8.999998;;;;;;;12.34;93.96289;95140.49;;;;
2021/08/28 02:23:42;;;;;;;10.8;8.999998;;;;;;;12.34;93.96289;95140.49;;;;
2021/08/28 02:24:48;;;;;;;10.8;8.999998;;;;;;;12.34;93.96289;95140.49;;;;
2021/08/28 02:25:55;;;;;;;10.8;8.999998;;;;;;;12.34;93.96289;95140.49;;;;
2021/08/28 02:27:01;;;;;;;10.8;8.999998;;;;;;;12.34;93.96289;95140.49;;;;
2021/08/28 02:28:07;;;;;;;10.55;9.200001;;;;;;;12.26;94.11816;95140.38;;;;
2021/08/28 02:29:12;;;;;;;10.55;9.200001;;;;;;;12.26;94.11816;95140.38;;;;
2021/08/28 02:30:18;;;;;;;10.55;9.200001;;;;;;;12.26;94.11816;95140.38;;;;
2021/08/28 02:31:19;;;;;;;10.55;9.200001;;;;;;;12.26;94.11816;95140.38;;;;
2021/08/28 02:32:24;;;;;;;10.55;9.200001;;;;;;;12.26;94.11816;95140.38;;;;
2021/08/28 02:33:27;;;;;;;10.55;9.200001;;;;;;;12.26;94.11816;95140.38;;;;
2021/08/28 02:34:28;;;;;;;10.55;9.200001;;;;;;;12.26;94.11816;95140.38;;;;
2021/08/28 02:35:33;;;;;;;10.55;9.200001;;;;;;;12.26;94.11816;95140.38;;;;
2021/08/28 02:36:34;;;;;;;10.55;9.200001;;;;;;;12.26;94.11816;95140.38;;;;
2021/08/28 02:37:35;;;;;;;10.55;9.200001;;;;;;;12.26;94.11816;95140.38;;;;
2021/08/28 02:38:38;;;;;;;10.55;9.200001;;;;;;;12.26;94.11816;95140.38;;;;
2021/08/28 02:39:40;;;;;;;10.95;9.6;;;;;;;12.25;94.74609;95136.44;;;;
2021/08/28 02:40:43;;;;;;;10.95;9.6;;;;;;;12.25;94.74609;95136.44;;;;
2021/08/28 02:41:47;;;;;;;10.95;9.6;;;;;;;12.25;94.74609;95136.44;;;;
2021/08/28 02:42:49;;;;;;;10.95;9.6;;;;;;;12.25;94.74609;95136.44;;;;
2021/08/28 02:43:50;;;;;;;10.95;9.6;;;;;;;12.25;94.74609;95136.44;;;;
2021/08/28 02:44:54;;;;;;;10.95;9.6;;;;;;;12.25;94.74609;95136.44;;;;
2021/08/28 02:45:55;;;;;;;10.95;9.6;;;;;;;12.25;94.74609;95136.44;;;;
2021/08/28 02:46:56;;;;;;;10.95;9.6;;;;;;;12.25;94.74609;95136.44;;;;
2021/08/28 02:47:59;;;;;;;10.95;9.6;;;;;;;12.25;94.74609;95136.44;;;;
2021/08/28 02:49:01;;;;;;;10.95;9.6;;;;;;;12.25;94.74609;95136.44;;;;
2021/08/28 02:50:04;;;;;;;10.5;9.4;;;;;;;12.2;95.04297;95124.72;;;;
2021/08/28 02:51:07;;;;;;;10.5;9.4;;;;;;;12.2;95.04297;95124.72;;;;
2021/08/28 02:52:09;;;;;;;10.5;9.4;;;;;;;12.2;95.04297;95124.72;;;;
2021/08/28 02:53:14;;;;;;;10.5;9.4;;;;;;;12.2;95.04297;95124.72;;;;
2021/08/28 02:54:17;;;;;;;10.5;9.4;;;;;;;12.2;95.04297;95124.72;;;;
2021/08/28 02:55:20;;;;;;;10.5;9.4;;;;;;;12.2;95.04297;95124.72;;;;
2021/08/28 02:56:21;;;;;;;10.5;9.4;;;;;;;12.2;95.04297;95124.72;;;;
2021/08/28 02:57:24;;;;;;;10.5;9.4;;;;;;;12.2;95.04297;95124.72;;;;
2021/08/28 02:58:27;;;;;;;10.5;9.4;;;;;;;12.2;95.04297;95124.72;;;;
2021/08/28 02:59:28;;;;;;;10.5;9.4;;;;;;;12.2;95.04297;95124.72;;;;
2021/08/28 03:00:30;;;;;;;9.85;8.550002;;;;;;;12.11;95.57813;95129.89;;;;
2021/08/28 03:01:31;;;;;;;9.85;8.550002;;;;;;;12.11;95.57813;95129.89;;;;
2021/08/28 03:02:33;;;;;;;9.85;8.550002;;;;;;;12.11;95.57813;95129.89;;;;
2021/08/28 03:03:35;;;;;;;9.85;8.550002;;;;;;;12.11;95.57813;95129.89;;;;
2021/08/28 03:04:38;;;;;;;9.85;8.550002;;;;;;;12.11;95.57813;95129.89;;;;
2021/08/28 03:05:39;;;;;;;9.85;8.550002;;;;;;;12.11;95.57813;95129.89;;;;
2021/08/28 03:06:41;;;;;;;9.85;8.550002;;;;;;;12.11;95.57813;95129.89;;;;
2021/08/28 03:07:43;;;;;;;9.85;8.550002;;;;;;;12.11;95.57813;95129.89;;;;
2021/08/28 03:08:45;;;;;;;9.85;8.550002;;;;;;;12.11;95.57813;95129.89;;;;
2021/08/28 03:09:47;;;;;;;9.85;8.550002;;;;;;;12.11;95.57813;95129.89;;;;
2021/08/28 03:10:49;;;;;;;8.45;7.55;;;;;;;12.01;96.17773;95126.9;;;;
2021/08/28 03:11:51;;;;;;;8.45;7.55;;;;;;;12.01;96.17773;95126.9;;;;
2021/08/28 03:12:52;;;;;;;8.45;7.55;;;;;;;12.01;96.17773;95126.9;;;;
2021/08/28 03:13:53;;;;;;;8.45;7.55;;;;;;;12.01;96.17773;95126.9;;;;
2021/08/28 03:14:54;;;;;;;8.45;7.55;;;;;;;12.01;96.17773;95126.9;;;;
2021/08/28 03:15:54;;;;;;;8.45;7.55;;;;;;;12.01;96.17773;95126.9;;;;
2021/08/28 03:16:56;;;;;;;8.45;7.55;;;;;;;12.01;96.17773;95126.9;;;;
2021/08/28 03:17:58;;;;;;;8.45;7.55;;;;;;;12.01;96.17773;95126.9;;;;
2021/08/28 03:18:59;;;;;;;8.45;7.55;;;;;;;12.01;96.17773;95126.9;;;;
2021/08/28 03:20:01;;;;;;;8.45;7.55;;;;;;;12.01;96.17773;95126.9;;;;
2021/08/28 03:21:03;;;;;;;8.45;7.55;;;;;;;12.01;96.17773;95126.9;;;;
2021/08/28 03:22:05;;;;;;;9.55;8.1;;;;;;;12.01;96.4873;95121.91;;;;
2021/08/28 03:23:07;;;;;;;9.55;8.1;;;;;;;12.01;96.4873;95121.91;;;;
2021/08/28 03:24:08;;;;;;;9.55;8.1;;;;;;;12.01;96.4873;95121.91;;;;
2021/08/28 03:25:10;;;;;;;9.55;8.1;;;;;;;12.01;96.4873;95121.91;;;;
2021/08/28 03:26:11;;;;;;;9.55;8.1;;;;;;;12.01;96.4873;95121.91;;;;
2021/08/28 03:27:14;;;;;;;9.55;8.1;;;;;;;12.01;96.4873;95121.91;;;;
2021/08/28 03:28:16;;;;;;;9.55;8.1;;;;;;;12.01;96.4873;95121.91;;;;
2021/08/28 03:29:18;;;;;;;9.55;8.1;;;;;;;12.01;96.4873;95121.91;;;;
2021/08/28 03:30:21;;;;;;;9.55;8.1;;;;;;;12.01;96.4873;95121.91;;;;
2021/08/28 03:31:21;;;;;;;9.55;8.1;;;;;;;12.01;96.4873;95121.91;;;;
2021/08/28 03:32:24;;;;;;;10.35;8.1;;;;;;;12.03;96.67285;95111.63;;;;
2021/08/28 03:33:25;;;;;;;10.35;8.1;;;;;;;12.03;96.67285;95111.63;;;;
2021/08/28 03:34:26;;;;;;;10.35;8.1;;;;;;;12.03;96.67285;95111.63;;;;
2021/08/28 03:35:27;;;;;;;10.35;8.1;;;;;;;12.03;96.67285;95111.63;;;;
2021/08/28 03:36:28;;;;;;;10.35;8.1;;;;;;;12.03;96.67285;95111.63;;;;
2021/08/28 03:37:31;;;;;;;10.35;8.1;;;;;;;12.03;96.67285;95111.63;;;;
2021/08/28 03:38:33;;;;;;;10.35;8.1;;;;;;;12.03;96.67285;95111.63;;;;
2021/08/28 03:39:34;;;;;;;10.35;8.1;;;;;;;12.03;96.67285;95111.63;;;;
2021/08/28 03:40:36;;;;;;;10.35;8.1;;;;;;;12.03;96.67285;95111.63;;;;
2021/08/28 03:41:38;;;;;;;10.35;8.1;;;;;;;12.03;96.67285;95111.63;;;;
2021/08/28 03:42:40;;;;;;;10.35;8.1;;;;;;;12.03;96.67285;95111.63;;;;
2021/08/28 03:43:41;;;;;;;9.9;8.599999;;;;;;;12.06;96.91113;95100.44;;;;
2021/08/28 03:44:41;;;;;;;9.9;8.599999;;;;;;;12.06;96.91113;95100.44;;;;
2021/08/28 03:45:42;;;;;;;9.9;8.599999;;;;;;;12.06;96.91113;95100.44;;;;
2021/08/28 03:46:42;;;;;;;9.9;8.599999;;;;;;;12.06;96.91113;95100.44;;;;
2021/08/28 03:47:44;;;;;;;9.9;8.599999;;;;;;;12.06;96.91113;95100.44;;;;
2021/08/28 03:48:45;;;;;;;9.9;8.599999;;;;;;;12.06;96.91113;95100.44;;;;
2021/08/28 03:49:45;;;;;;;9.9;8.599999;;;;;;;12.06;96.91113;95100.44;;;;
2021/08/28 03:50:46;;;;;;;9.9;8.599999;;;;;;;12.06;96.91113;95100.44;;;;
2021/08/28 03:51:48;;;;;;;9.9;8.599999;;;;;;;12.06;96.91113;95100.44;;;;
2021/08/28 03:52:48;;;;;;;9.9;8.599999;;;;;;;12.06;96.91113;95100.44;;;;
2021/08/28 03:53:49;;;;;;;9.199999;8.000002;;;;;;;12.06;97.2207;95105.84;;;;
2021/08/28 03:54:50;;;;;;;9.199999;8.000002;;;;;;;12.06;97.2207;95105.84;;;;
2021/08/28 03:55:50;;;;;;;9.199999;8.000002;;;;;;;12.06;97.2207;95105.84;;;;
2021/08/28 03:56:51;;;;;;;9.199999;8.000002;;;;;;;12.06;97.2207;95105.84;;;;
2021/08/28 03:57:51;;;;;;;9.199999;8.000002;;;;;;;12.06;97.2207;95105.84;;;;
2021/08/28 03:58:52;;;;;;;9.199999;8.000002;;;;;;;12.06;97.2207;95105.84;;;;
2021/08/28 03:59:52;;;;;;;9.199999;8.000002;;;;;;;12.06;97.2207;95105.84;;;;
2021/08/28 04:00:53;;;;;;;9.199999;8.000002;;;;;;;12.06;97.2207;95105.84;;;;
2021/08/28 04:01:54;;;;;;;9.199999;8.000002;;;;;;;12.06;97.2207;95105.84;;;;
2021/08/28 04:02:54;;;;;;;9.199999;8.000002;;;;;;;12.06;97.2207;95105.84;;;;
2021/08/28 04:03:55;;;;;;;9.199999;8.000002;;;;;;;12.06;97.2207;95105.84;;;;
2021/08/28 04:04:55;;;;;;;11.05;8.450002;;;;;;;12.06;97.57227;95103.14;;;;
2021/08/28 04:05:56;;;;;;;11.05;8.450002;;;;;;;12.06;97.57227;95103.14;;;;
2021/08/28 04:06:57;;;;;;;11.05;8.450002;;;;;;;12.06;97.57227;95103.14;;;;
2021/08/28 04:07:57;;;;;;;11.05;8.450002;;;;;;;12.06;97.57227;95103.14;;;;
2021/08/28 04:08:58;;;;;;;11.05;8.450002;;;;;;;12.06;97.57227;95103.14;;;;
2021/08/28 04:09:58;;;;;;;11.05;8.450002;;;;;;;12.06;97.57227;95103.14;;;;
2021/08/28 04:10:59;;;;;;;11.05;8.450002;;;;;;;12.06;97.57227;95103.14;;;;
2021/08/28 04:12:00;;;;;;;11.05;8.450002;;;;;;;12.06;97.57227;95103.14;;;;
2021/08/28 04:13:00;;;;;;;11.05;8.450002;;;;;;;12.06;97.57227;95103.14;;;;
2021/08/28 04:14:01;;;;;;;11.05;8.450002;;;;;;;12.06;97.57227;95103.14;;;;
2021/08/28 04:15:01;;;;;;;10.95;8.9;;;;;;;12.04;98.06055;95102.45;;;;
2021/08/28 04:16:02;;;;;;;10.95;8.9;;;;;;;12.04;98.06055;95102.45;;;;
2021/08/28 04:17:04;;;;;;;10.95;8.9;;;;;;;12.04;98.06055;95102.45;;;;
2021/08/28 04:18:04;;;;;;;10.95;8.9;;;;;;;12.04;98.06055;95102.45;;;;
2021/08/28 04:19:05;;;;;;;10.95;8.9;;;;;;;12.04;98.06055;95102.45;;;;
2021/08/28 04:20:05;;;;;;;10.95;8.9;;;;;;;12.04;98.06055;95102.45;;;;
2021/08/28 04:21:07;;;;;;;10.95;8.9;;;;;;;12.04;98.06055;95102.45;;;;
2021/08/28 04:22:08;;;;;;;10.95;8.9;;;;;;;12.04;98.06055;95102.45;;;;
2021/08/28 04:23:08;;;;;;;10.95;8.9;;;;;;;12.04;98.06055;95102.45;;;;
2021/08/28 04:24:09;;;;;;;10.95;8.9;;;;;;;12.04;98.06055;95102.45;;;;
2021/08/28 04:25:09;;;;;;;10.95;8.9;;;;;;;12.04;98.06055;95102.45;;;;
2021/08/28 04:26:10;;;;;;;10.95;8.9;;;;;;;12.04;98.06055;95102.45;;;;
2021/08/28 04:27:11;;;;;;;10.95;8.9;;;;;;;12.04;98.06055;95102.45;;;;
2021/08/28 04:28:11;;;;;;;10.95;8.9;;;;;;;12.04;98.06055;95102.45;;;;
2021/08/28 04:29:12;;;;;;;10.95;8.9;;;;;;;12.04;98.06055;95102.45;;;;
2021/08/28 04:30:12;;;;;;;10.95;8.9;;;;;;;12.04;98.06055;95102.45;;;;
2021/08/28 04:31:13;;;;;;;10.95;8.9;;;;;;;12.04;98.06055;95102.45;;;;
2021/08/28 04:32:14;;;;;;;10.95;8.9;;;;;;;12.04;98.06055;95102.45;;;;
2021/08/28 04:33:15;;;;;;;10.95;8.9;;;;;;;12.04;98.06055;95102.45;;;;
2021/08/28 04:34:16;;;;;;;10.95;8.9;;;;;;;12.04;98.06055;95102.45;;;;
2021/08/28 04:35:16;;;;;;;10.95;8.9;;;;;;;12.04;98.06055;95102.45;;;;
2021/08/28 04:36:17;;;;;;;11.5;9.2;;;;;;;12.1;98.7666;95111.05;;;;
2021/08/28 04:37:17;;;;;;;11.5;9.2;;;;;;;12.1;98.7666;95111.05;;;;
2021/08/28 04:38:18;;;;;;;11.5;9.2;;;;;;;12.1;98.7666;95111.05;;;;
2021/08/28 04:39:20;;;;;;;11.5;9.2;;;;;;;12.1;98.7666;95111.05;;;;
2021/08/28 04:40:20;;;;;;;11.5;9.2;;;;;;;12.1;98.7666;95111.05;;;;
2021/08/28 04:41:21;;;;;;;11.5;9.2;;;;;;;12.1;98.7666;95111.05;;;;
2021/08/28 04:42:22;;;;;;;11.5;9.2;;;;;;;12.1;98.7666;95111.05;;;;
2021/08/28 04:43:22;;;;;;;11.5;9.2;;;;;;;12.1;98.7666;95111.05;;;;
2021/08/28 04:44:23;;;;;;;11.5;9.2;;;;;;;12.1;98.7666;95111.05;;;;
2021/08/28 04:45:23;;;;;;;11.5;9.2;;;;;;;12.1;98.7666;95111.05;;;;
2021/08/28 04:46:24;;;;;;;11.5;9.2;;;;;;;12.1;98.7666;95111.05;;;;
2021/08/28 04:47:24;;;;;;;11.65;8.700001;;;;;;;12.13;99.07129;95111.49;;;;
2021/08/28 04:48:27;;;;;;;11.65;8.700001;;;;;;;12.13;99.07129;95111.49;;;;
2021/08/28 04:49:27;;;;;;;11.65;8.700001;;;;;;;12.13;99.07129;95111.49;;;;
2021/08/28 04:50:28;;;;;;;11.65;8.700001;;;;;;;12.13;99.07129;95111.49;;;;
2021/08/28 04:51:29;;;;;;;11.65;8.700001;;;;;;;12.13;99.07129;95111.49;;;;
2021/08/28 04:52:29;;;;;;;11.65;8.700001;;;;;;;12.13;99.07129;95111.49;;;;
2021/08/28 04:53:30;;;;;;;11.65;8.700001;;;;;;;12.13;99.07129;95111.49;;;;
2021/08/28 04:54:31;;;;;;;11.65;8.700001;;;;;;;12.13;99.07129;95111.49;;;;
2021/08/28 04:55:32;;;;;;;11.65;8.700001;;;;;;;12.13;99.07129;95111.49;;;;
2021/08/28 04:56:32;;;;;;;11.65;8.700001;;;;;;;12.13;99.07129;95111.49;;;;
2021/08/28 04:57:33;;;;;;;10.4;8.7;;;;;;;12.13;99.44434;95117.72;;;;
2021/08/28 04:58:33;;;;;;;10.4;8.7;;;;;;;12.13;99.44434;95117.72;;;;
2021/08/28 04:59:34;;;;;;;10.4;8.7;;;;;;;12.13;99.44434;95117.72;;;;
2021/08/28 05:00:34;;;;;;;10.4;8.7;;;;;;;12.13;99.44434;95117.72;;;;
2021/08/28 05:01:35;;;;;;;10.4;8.7;;;;;;;12.13;99.44434;95117.72;;;;
2021/08/28 05:02:35;;;;;;;10.4;8.7;;;;;;;12.13;99.44434;95117.72;;;;
2021/08/28 05:03:36;;;;;;;10.4;8.7;;;;;;;12.13;99.44434;95117.72;;;;
2021/08/28 05:04:36;;;;;;;10.4;8.7;;;;;;;12.13;99.44434;95117.72;;;;
2021/08/28 05:05:37;;;;;;;10.4;8.7;;;;;;;12.13;99.44434;95117.72;;;;
2021/08/28 05:06:37;;;;;;;10.4;8.7;;;;;;;12.13;99.44434;95117.72;;;;
2021/08/28 05:07:38;;;;;;;10.4;8.7;;;;;;;12.13;99.44434;95117.72;;;;
2021/08/28 05:08:38;;;;;;;12.95;10.5;;;;;;;12.13;99.94531;95123.55;;;;
2021/08/28 05:09:39;;;;;;;12.95;10.5;;;;;;;12.13;99.94531;95123.55;;;;
2021/08/28 05:10:39;;;;;;;12.95;10.5;;;;;;;12.13;99.94531;95123.55;;;;
2021/08/28 05:11:40;;;;;;;12.95;10.5;;;;;;;12.13;99.94531;95123.55;;;;
2021/08/28 05:12:40;;;;;;;12.95;10.5;;;;;;;12.13;99.94531;95123.55;;;;
2021/08/28 05:13:41;;;;;;;12.95;10.5;;;;;;;12.13;99.94531;95123.55;;;;
2021/08/28 05:14:41;;;;;;;12.95;10.5;;;;;;;12.13;99.94531;95123.55;;;;
2021/08/28 05:15:42;;;;;;;12.95;10.5;;;;;;;12.13;99.94531;95123.55;;;;
2021/08/28 05:16:42;;;;;;;12.95;10.5;;;;;;;12.13;99.94531;95123.55;;;;
2021/08/28 05:17:43;;;;;;;12.95;10.5;;;;;;;12.13;99.94531;95123.55;;;;
2021/08/28 05:18:43;;;;;;;16.75;10.45;;;;;;;12.2;100;95114.72;;;;
2021/08/28 05:19:44;;;;;;;16.75;10.45;;;;;;;12.2;100;95114.72;;;;
2021/08/28 05:20:45;;;;;;;16.75;10.45;;;;;;;12.2;100;95114.72;;;;
2021/08/28 05:21:46;;;;;;;16.75;10.45;;;;;;;12.2;100;95114.72;;;;
2021/08/28 05:22:47;;;;;;;16.75;10.45;;;;;;;12.2;100;95114.72;;;;
2021/08/28 05:23:47;;;;;;;16.75;10.45;;;;;;;12.2;100;95114.72;;;;
2021/08/28 05:24:48;;;;;;;16.75;10.45;;;;;;;12.2;100;95114.72;;;;
2021/08/28 05:25:48;;;;;;;16.75;10.45;;;;;;;12.2;100;95114.72;;;;
2021/08/28 05:26:49;;;;;;;16.75;10.45;;;;;;;12.2;100;95114.72;;;;
2021/08/28 05:27:49;;;;;;;16.75;10.45;;;;;;;12.2;100;95114.72;;;;
2021/08/28 05:28:50;;;;;;;16.75;10.45;;;;;;;12.2;100;95114.72;;;;
2021/08/28 05:29:51;;;;;;;13.55;10.7;;;;;;;12.44;100;95125.61;;;;
2021/08/28 05:30:51;;;;;;;13.55;10.7;;;;;;;12.44;100;95125.61;;;;
2021/08/28 05:31:52;;;;;;;13.55;10.7;;;;;;;12.44;100;95125.61;;;;
2021/08/28 05:32:53;;;;;;;13.55;10.7;;;;;;;12.44;100;95125.61;;;;
2021/08/28 05:33:53;;;;;;;13.55;10.7;;;;;;;12.44;100;95125.61;;;;
2021/08/28 05:34:55;;;;;;;13.55;10.7;;;;;;;12.44;100;95125.61;;;;
2021/08/28 05:35:55;;;;;;;13.55;10.7;;;;;;;12.44;100;95125.61;;;;
2021/08/28 05:36:56;;;;;;;13.55;10.7;;;;;;;12.44;100;95125.61;;;;
2021/08/28 05:37:56;;;;;;;13.55;10.7;;;;;;;12.44;100;95125.61;;;;
2021/08/28 05:38:57;;;;;;;13.55;10.7;;;;;;;12.44;100;95125.61;;;;
2021/08/28 05:39:57;;;;;;;13.55;10.7;;;;;;;12.44;100;95125.61;;;;
2021/08/28 05:40:58;;;;;;;11.1;9.65;;;;;;;12.58;100;95121.98;;;;
2021/08/28 05:41:59;;;;;;;11.1;9.65;;;;;;;12.58;100;95121.98;;;;